sensor_id;sensor_type;location;lat;lon;timestamp;temperature;humidity
6291;DHT22;3178;48.730;8.990;2023-03-01T00:00:38;-0.60;99.90
6291;DHT22;3178;48.730;8.990;2023-03-01T00:03:04;-0.60;99.90
6291;DHT22;3178;48.730;8.990;2023-03-01T00:05:29;-0.60;99.90
6291;DHT22;3178;48.730;8.990;2023-03-01T00:07:55;-0.60;99.90
6291;DHT22;3178;48.730;8.990;2023-03-01T00:10:20;-0.60;99.90
6291;DHT22;3178;48.730;8.990;2023-03-01T00:12:46;-0.70;99.90
6291;DHT22;3178;48.730;8.990;2023-03-01T00:15:12;-0.70;99.90
6291;DHT22;3178;48.730;8.990;2023-03-01T00:17:37;-0.70;99.90
6291;DHT22;3178;48.730;8.990;2023-03-01T00:20:04;-0.70;99.90
6291;DHT22;3178;48.730;8.990;2023-03-01T00:22:33;-0.70;99.90
6291;DHT22;3178;48.730;8.990;2023-03-01T00:24:58;-0.70;99.90
6291;DHT22;3178;48.730;8.990;2023-03-01T00:27:24;-0.70;99.90
6291;DHT22;3178;48.730;8.990;2023-03-01T00:29:49;-0.70;99.90
6291;DHT22;3178;48.730;8.990;2023-03-01T00:32:15;-0.80;99.90
6291;DHT22;3178;48.730;8.990;2023-03-01T00:34:40;-0.80;99.90
6291;DHT22;3178;48.730;8.990;2023-03-01T00:37:06;-0.80;99.90
6291;DHT22;3178;48.730;8.990;2023-03-01T00:39:32;-0.80;99.90
6291;DHT22;3178;48.730;8.990;2023-03-01T00:41:58;-0.80;99.90
6291;DHT22;3178;48.730;8.990;2023-03-01T00:44:24;-0.90;99.90
6291;DHT22;3178;48.730;8.990;2023-03-01T00:46:49;-0.90;99.90
6291;DHT22;3178;48.730;8.990;2023-03-01T00:49:15;-0.90;99.90
6291;DHT22;3178;48.730;8.990;2023-03-01T00:51:40;-0.90;99.90
6291;DHT22;3178;48.730;8.990;2023-03-01T00:54:09;-0.90;99.90
6291;DHT22;3178;48.730;8.990;2023-03-01T00:56:35;-1.00;99.90
6291;DHT22;3178;48.730;8.990;2023-03-01T00:59:01;-1.00;99.90
6291;DHT22;3178;48.730;8.990;2023-03-01T01:01:28;-1.00;99.90
6291;DHT22;3178;48.730;8.990;2023-03-01T01:04:00;-1.00;99.90
6291;DHT22;3178;48.730;8.990;2023-03-01T01:06:37;-1.00;99.90
6291;DHT22;3178;48.730;8.990;2023-03-01T01:09:05;-1.00;99.90
6291;DHT22;3178;48.730;8.990;2023-03-01T01:11:32;-1.00;99.90
6291;DHT22;3178;48.730;8.990;2023-03-01T01:13:58;-1.00;99.90
6291;DHT22;3178;48.730;8.990;2023-03-01T01:16:26;-1.00;99.90
6291;DHT22;3178;48.730;8.990;2023-03-01T01:18:52;-1.00;99.90
6291;DHT22;3178;48.730;8.990;2023-03-01T01:21:20;-1.00;99.90
6291;DHT22;3178;48.730;8.990;2023-03-01T01:23:47;-1.00;99.90
6291;DHT22;3178;48.730;8.990;2023-03-01T01:26:16;-1.00;99.90
6291;DHT22;3178;48.730;8.990;2023-03-01T01:28:41;-1.00;99.90
6291;DHT22;3178;48.730;8.990;2023-03-01T01:31:07;-1.10;99.90
6291;DHT22;3178;48.730;8.990;2023-03-01T01:33:33;-1.10;99.90
6291;DHT22;3178;48.730;8.990;2023-03-01T01:35:59;-1.10;99.90
6291;DHT22;3178;48.730;8.990;2023-03-01T01:38:24;-1.00;99.90
6291;DHT22;3178;48.730;8.990;2023-03-01T01:40:50;-1.00;99.90
6291;DHT22;3178;48.730;8.990;2023-03-01T01:43:23;-1.10;99.90
6291;DHT22;3178;48.730;8.990;2023-03-01T01:45:50;-1.10;99.90
6291;DHT22;3178;48.730;8.990;2023-03-01T01:48:22;-1.10;99.90
6291;DHT22;3178;48.730;8.990;2023-03-01T01:50:59;-1.10;99.90
6291;DHT22;3178;48.730;8.990;2023-03-01T01:53:25;-1.20;99.90
6291;DHT22;3178;48.730;8.990;2023-03-01T01:55:58;-1.20;99.90
6291;DHT22;3178;48.730;8.990;2023-03-01T01:58:28;-1.20;99.90
6291;DHT22;3178;48.730;8.990;2023-03-01T02:00:55;-1.20;99.90
6291;DHT22;3178;48.730;8.990;2023-03-01T02:03:28;-1.20;99.90
6291;DHT22;3178;48.730;8.990;2023-03-01T02:06:12;-1.20;99.90
6291;DHT22;3178;48.730;8.990;2023-03-01T02:08:40;-1.20;99.90
6291;DHT22;3178;48.730;8.990;2023-03-01T02:11:08;-1.20;99.90
6291;DHT22;3178;48.730;8.990;2023-03-01T02:13:35;-1.20;99.90
6291;DHT22;3178;48.730;8.990;2023-03-01T02:16:08;-1.20;99.90
6291;DHT22;3178;48.730;8.990;2023-03-01T02:18:35;-1.20;99.90
6291;DHT22;3178;48.730;8.990;2023-03-01T02:21:09;-1.20;99.90
6291;DHT22;3178;48.730;8.990;2023-03-01T02:23:38;-1.20;99.90
6291;DHT22;3178;48.730;8.990;2023-03-01T02:28:51;-1.20;99.90
6291;DHT22;3178;48.730;8.990;2023-03-01T02:31:19;-1.10;99.90
6291;DHT22;3178;48.730;8.990;2023-03-01T02:34:05;-1.10;99.90
6291;DHT22;3178;48.730;8.990;2023-03-01T02:36:37;-1.10;99.90
6291;DHT22;3178;48.730;8.990;2023-03-01T02:39:06;-1.00;99.90
6291;DHT22;3178;48.730;8.990;2023-03-01T02:41:38;-1.00;99.90
6291;DHT22;3178;48.730;8.990;2023-03-01T02:44:04;-0.90;99.90
6291;DHT22;3178;48.730;8.990;2023-03-01T02:46:30;-0.90;99.90
6291;DHT22;3178;48.730;8.990;2023-03-01T02:48:57;-0.80;99.90
6291;DHT22;3178;48.730;8.990;2023-03-01T02:56:48;-0.70;99.90
6291;DHT22;3178;48.730;8.990;2023-03-01T02:59:17;-0.70;99.90
6291;DHT22;3178;48.730;8.990;2023-03-01T03:01:43;-0.70;99.90
6291;DHT22;3178;48.730;8.990;2023-03-01T03:04:11;-0.70;99.90
6291;DHT22;3178;48.730;8.990;2023-03-01T03:06:37;-0.70;99.90
6291;DHT22;3178;48.730;8.990;2023-03-01T03:09:03;-0.60;99.90
6291;DHT22;3178;48.730;8.990;2023-03-01T03:11:29;-0.70;99.90
6291;DHT22;3178;48.730;8.990;2023-03-01T03:13:56;-0.60;99.90
6291;DHT22;3178;48.730;8.990;2023-03-01T03:16:23;-0.60;99.90
6291;DHT22;3178;48.730;8.990;2023-03-01T03:18:50;-0.60;99.90
6291;DHT22;3178;48.730;8.990;2023-03-01T03:21:15;-0.60;99.90
6291;DHT22;3178;48.730;8.990;2023-03-01T03:23:41;-0.60;99.90
6291;DHT22;3178;48.730;8.990;2023-03-01T03:26:07;-0.60;99.90
6291;DHT22;3178;48.730;8.990;2023-03-01T03:28:33;-0.60;99.90
6291;DHT22;3178;48.730;8.990;2023-03-01T03:30:59;-0.60;99.90
6291;DHT22;3178;48.730;8.990;2023-03-01T03:33:30;-0.50;99.90
6291;DHT22;3178;48.730;8.990;2023-03-01T03:35:55;-0.50;99.90
6291;DHT22;3178;48.730;8.990;2023-03-01T03:38:21;-0.50;99.90
6291;DHT22;3178;48.730;8.990;2023-03-01T03:41:02;-0.50;99.90
6291;DHT22;3178;48.730;8.990;2023-03-01T03:43:30;-0.40;99.90
6291;DHT22;3178;48.730;8.990;2023-03-01T03:45:56;-0.40;99.90
6291;DHT22;3178;48.730;8.990;2023-03-01T03:48:23;-0.40;99.90
6291;DHT22;3178;48.730;8.990;2023-03-01T03:50:51;-0.40;99.90
6291;DHT22;3178;48.730;8.990;2023-03-01T03:53:17;-0.40;99.90
6291;DHT22;3178;48.730;8.990;2023-03-01T03:55:43;-0.40;99.90
6291;DHT22;3178;48.730;8.990;2023-03-01T03:58:10;-0.40;99.90
6291;DHT22;3178;48.730;8.990;2023-03-01T04:00:39;-0.30;99.90
6291;DHT22;3178;48.730;8.990;2023-03-01T04:03:05;-0.30;99.90
6291;DHT22;3178;48.730;8.990;2023-03-01T04:05:31;-0.30;99.90
6291;DHT22;3178;48.730;8.990;2023-03-01T04:07:57;-0.30;99.90
6291;DHT22;3178;48.730;8.990;2023-03-01T04:10:41;-0.30;99.90
6291;DHT22;3178;48.730;8.990;2023-03-01T04:13:09;-0.30;99.90
6291;DHT22;3178;48.730;8.990;2023-03-01T04:15:35;-0.30;99.90
6291;DHT22;3178;48.730;8.990;2023-03-01T04:18:01;-0.30;99.90
6291;DHT22;3178;48.730;8.990;2023-03-01T04:20:29;-0.30;99.90
6291;DHT22;3178;48.730;8.990;2023-03-01T04:23:20;-0.30;99.90
6291;DHT22;3178;48.730;8.990;2023-03-01T04:25:54;-0.30;99.90
6291;DHT22;3178;48.730;8.990;2023-03-01T04:28:22;-0.30;99.90
6291;DHT22;3178;48.730;8.990;2023-03-01T04:30:49;-0.30;99.90
6291;DHT22;3178;48.730;8.990;2023-03-01T04:33:14;-0.30;99.90
6291;DHT22;3178;48.730;8.990;2023-03-01T04:35:40;-0.30;99.90
6291;DHT22;3178;48.730;8.990;2023-03-01T04:38:06;-0.30;99.90
6291;DHT22;3178;48.730;8.990;2023-03-01T04:40:32;-0.30;99.90
6291;DHT22;3178;48.730;8.990;2023-03-01T04:42:57;-0.20;99.90
6291;DHT22;3178;48.730;8.990;2023-03-01T04:45:23;-0.20;99.90
6291;DHT22;3178;48.730;8.990;2023-03-01T04:47:49;-0.20;99.90
6291;DHT22;3178;48.730;8.990;2023-03-01T04:50:16;-0.20;99.90
6291;DHT22;3178;48.730;8.990;2023-03-01T04:52:43;-0.20;99.90
6291;DHT22;3178;48.730;8.990;2023-03-01T04:55:09;-0.20;99.90
6291;DHT22;3178;48.730;8.990;2023-03-01T04:57:35;-0.20;99.90
6291;DHT22;3178;48.730;8.990;2023-03-01T05:00:01;-0.20;99.90
6291;DHT22;3178;48.730;8.990;2023-03-01T05:02:26;-0.20;99.90
6291;DHT22;3178;48.730;8.990;2023-03-01T05:04:52;-0.20;99.90
6291;DHT22;3178;48.730;8.990;2023-03-01T05:07:17;-0.20;99.90
6291;DHT22;3178;48.730;8.990;2023-03-01T05:09:48;-0.20;99.90
6291;DHT22;3178;48.730;8.990;2023-03-01T05:12:14;-0.20;99.90
6291;DHT22;3178;48.730;8.990;2023-03-01T05:14:40;-0.10;99.90
6291;DHT22;3178;48.730;8.990;2023-03-01T05:17:06;-0.10;99.90
6291;DHT22;3178;48.730;8.990;2023-03-01T05:19:32;-0.10;99.90
6291;DHT22;3178;48.730;8.990;2023-03-01T05:21:58;-0.10;99.90
6291;DHT22;3178;48.730;8.990;2023-03-01T05:24:28;0.00;99.90
6291;DHT22;3178;48.730;8.990;2023-03-01T05:26:54;0.00;99.90
6291;DHT22;3178;48.730;8.990;2023-03-01T05:29:21;0.00;99.90
6291;DHT22;3178;48.730;8.990;2023-03-01T05:31:54;0.00;99.90
6291;DHT22;3178;48.730;8.990;2023-03-01T05:34:34;0.00;99.90
6291;DHT22;3178;48.730;8.990;2023-03-01T05:37:01;0.00;99.90
6291;DHT22;3178;48.730;8.990;2023-03-01T05:39:27;0.00;99.90
6291;DHT22;3178;48.730;8.990;2023-03-01T05:41:55;0.00;99.90
6291;DHT22;3178;48.730;8.990;2023-03-01T05:44:21;0.00;99.90
6291;DHT22;3178;48.730;8.990;2023-03-01T05:46:47;0.00;99.90
6291;DHT22;3178;48.730;8.990;2023-03-01T05:49:14;0.00;99.90
6291;DHT22;3178;48.730;8.990;2023-03-01T05:51:41;0.00;99.90
6291;DHT22;3178;48.730;8.990;2023-03-01T05:54:08;0.00;99.90
6291;DHT22;3178;48.730;8.990;2023-03-01T05:56:34;0.10;99.90
6291;DHT22;3178;48.730;8.990;2023-03-01T05:59:01;0.10;99.90
6291;DHT22;3178;48.730;8.990;2023-03-01T06:01:26;0.10;99.90
6291;DHT22;3178;48.730;8.990;2023-03-01T06:03:52;0.10;99.90
6291;DHT22;3178;48.730;8.990;2023-03-01T06:06:18;0.10;99.90
6291;DHT22;3178;48.730;8.990;2023-03-01T06:08:43;0.10;99.90
6291;DHT22;3178;48.730;8.990;2023-03-01T06:11:09;0.10;99.90
6291;DHT22;3178;48.730;8.990;2023-03-01T06:13:34;0.10;99.90
6291;DHT22;3178;48.730;8.990;2023-03-01T06:16:00;0.10;99.90
6291;DHT22;3178;48.730;8.990;2023-03-01T06:18:25;0.10;99.90
6291;DHT22;3178;48.730;8.990;2023-03-01T06:20:55;0.20;99.90
6291;DHT22;3178;48.730;8.990;2023-03-01T06:23:22;0.20;99.90
6291;DHT22;3178;48.730;8.990;2023-03-01T06:25:47;0.10;99.90
6291;DHT22;3178;48.730;8.990;2023-03-01T06:28:13;0.10;99.90
6291;DHT22;3178;48.730;8.990;2023-03-01T06:30:38;0.10;99.90
6291;DHT22;3178;48.730;8.990;2023-03-01T06:33:04;0.10;99.90
6291;DHT22;3178;48.730;8.990;2023-03-01T06:35:30;0.10;99.90
6291;DHT22;3178;48.730;8.990;2023-03-01T06:37:56;0.20;99.90
6291;DHT22;3178;48.730;8.990;2023-03-01T06:40:23;0.20;99.90
6291;DHT22;3178;48.730;8.990;2023-03-01T06:42:50;0.20;99.90
6291;DHT22;3178;48.730;8.990;2023-03-01T06:45:17;0.20;99.90
6291;DHT22;3178;48.730;8.990;2023-03-01T06:47:43;0.20;99.90
6291;DHT22;3178;48.730;8.990;2023-03-01T06:50:09;0.10;99.90
6291;DHT22;3178;48.730;8.990;2023-03-01T06:52:35;0.20;99.90
6291;DHT22;3178;48.730;8.990;2023-03-01T06:55:01;0.00;99.90
6291;DHT22;3178;48.730;8.990;2023-03-01T06:57:26;0.20;99.90
6291;DHT22;3178;48.730;8.990;2023-03-01T06:59:52;0.20;99.90
6291;DHT22;3178;48.730;8.990;2023-03-01T07:02:18;0.20;99.90
6291;DHT22;3178;48.730;8.990;2023-03-01T07:04:43;0.20;99.90
6291;DHT22;3178;48.730;8.990;2023-03-01T07:07:10;0.20;99.90
6291;DHT22;3178;48.730;8.990;2023-03-01T07:09:35;0.30;99.90
6291;DHT22;3178;48.730;8.990;2023-03-01T07:12:01;0.30;99.90
6291;DHT22;3178;48.730;8.990;2023-03-01T07:14:27;0.30;99.90
6291;DHT22;3178;48.730;8.990;2023-03-01T07:16:53;0.30;99.90
6291;DHT22;3178;48.730;8.990;2023-03-01T07:19:19;0.40;99.90
6291;DHT22;3178;48.730;8.990;2023-03-01T07:21:46;0.40;99.90
6291;DHT22;3178;48.730;8.990;2023-03-01T07:24:11;0.50;99.90
6291;DHT22;3178;48.730;8.990;2023-03-01T07:26:37;0.50;99.90
6291;DHT22;3178;48.730;8.990;2023-03-01T07:29:04;0.60;99.90
6291;DHT22;3178;48.730;8.990;2023-03-01T07:31:30;0.70;99.90
6291;DHT22;3178;48.730;8.990;2023-03-01T07:33:56;0.80;99.90
6291;DHT22;3178;48.730;8.990;2023-03-01T07:36:23;0.90;99.90
6291;DHT22;3178;48.730;8.990;2023-03-01T07:38:48;1.10;99.90
6291;DHT22;3178;48.730;8.990;2023-03-01T07:41:14;1.20;99.90
6291;DHT22;3178;48.730;8.990;2023-03-01T07:43:40;1.30;99.90
6291;DHT22;3178;48.730;8.990;2023-03-01T07:46:05;1.40;99.90
6291;DHT22;3178;48.730;8.990;2023-03-01T07:48:32;1.50;99.90
6291;DHT22;3178;48.730;8.990;2023-03-01T07:51:00;1.70;99.90
6291;DHT22;3178;48.730;8.990;2023-03-01T07:53:26;1.80;99.90
6291;DHT22;3178;48.730;8.990;2023-03-01T07:56:06;2.00;99.90
6291;DHT22;3178;48.730;8.990;2023-03-01T07:58:34;2.20;99.90
6291;DHT22;3178;48.730;8.990;2023-03-01T08:01:02;2.40;99.90
6291;DHT22;3178;48.730;8.990;2023-03-01T08:03:28;2.60;99.90
6291;DHT22;3178;48.730;8.990;2023-03-01T08:05:54;2.80;99.90
6291;DHT22;3178;48.730;8.990;2023-03-01T08:08:19;2.90;99.90
6291;DHT22;3178;48.730;8.990;2023-03-01T08:10:45;3.00;99.90
6291;DHT22;3178;48.730;8.990;2023-03-01T08:13:10;3.20;99.90
6291;DHT22;3178;48.730;8.990;2023-03-01T08:15:36;3.40;99.90
6291;DHT22;3178;48.730;8.990;2023-03-01T08:18:01;3.60;99.90
6291;DHT22;3178;48.730;8.990;2023-03-01T08:20:27;3.80;99.90
6291;DHT22;3178;48.730;8.990;2023-03-01T08:22:52;4.00;99.90
6291;DHT22;3178;48.730;8.990;2023-03-01T08:25:18;4.10;99.90
6291;DHT22;3178;48.730;8.990;2023-03-01T08:27:43;4.30;99.90
6291;DHT22;3178;48.730;8.990;2023-03-01T08:30:09;4.40;99.90
6291;DHT22;3178;48.730;8.990;2023-03-01T08:32:39;4.50;99.90
6291;DHT22;3178;48.730;8.990;2023-03-01T08:35:05;4.80;99.90
6291;DHT22;3178;48.730;8.990;2023-03-01T08:37:30;5.00;99.90
6291;DHT22;3178;48.730;8.990;2023-03-01T08:40:01;5.20;99.90
6291;DHT22;3178;48.730;8.990;2023-03-01T08:42:27;5.40;99.90
6291;DHT22;3178;48.730;8.990;2023-03-01T08:44:53;5.40;99.90
6291;DHT22;3178;48.730;8.990;2023-03-01T08:47:18;5.50;99.90
6291;DHT22;3178;48.730;8.990;2023-03-01T08:49:44;5.80;99.90
6291;DHT22;3178;48.730;8.990;2023-03-01T08:52:09;6.00;99.90
6291;DHT22;3178;48.730;8.990;2023-03-01T08:54:35;6.30;99.90
6291;DHT22;3178;48.730;8.990;2023-03-01T08:57:03;6.50;99.90
6291;DHT22;3178;48.730;8.990;2023-03-01T08:59:29;6.60;99.90
6291;DHT22;3178;48.730;8.990;2023-03-01T09:01:55;6.90;99.90
6291;DHT22;3178;48.730;8.990;2023-03-01T09:04:21;7.10;99.90
6291;DHT22;3178;48.730;8.990;2023-03-01T09:06:46;7.30;99.90
6291;DHT22;3178;48.730;8.990;2023-03-01T09:09:15;7.50;99.90
6291;DHT22;3178;48.730;8.990;2023-03-01T09:11:41;7.70;99.90
6291;DHT22;3178;48.730;8.990;2023-03-01T09:14:08;8.00;99.90
6291;DHT22;3178;48.730;8.990;2023-03-01T09:16:33;7.90;98.40
6291;DHT22;3178;48.730;8.990;2023-03-01T09:19:01;8.10;97.70
6291;DHT22;3178;48.730;8.990;2023-03-01T09:21:28;8.00;97.30
6291;DHT22;3178;48.730;8.990;2023-03-01T09:23:56;8.10;96.80
6291;DHT22;3178;48.730;8.990;2023-03-01T09:26:22;8.20;96.90
6291;DHT22;3178;48.730;8.990;2023-03-01T09:28:50;8.10;96.50
6291;DHT22;3178;48.730;8.990;2023-03-01T09:31:17;8.20;95.80
6291;DHT22;3178;48.730;8.990;2023-03-01T09:33:46;8.50;96.10
6291;DHT22;3178;48.730;8.990;2023-03-01T09:36:16;8.60;94.10
6291;DHT22;3178;48.730;8.990;2023-03-01T09:38:42;8.50;94.80
6291;DHT22;3178;48.730;8.990;2023-03-01T09:43:55;8.70;94.50
6291;DHT22;3178;48.730;8.990;2023-03-01T09:46:24;8.90;93.10
6291;DHT22;3178;48.730;8.990;2023-03-01T09:48:55;8.90;93.50
6291;DHT22;3178;48.730;8.990;2023-03-01T09:51:34;9.00;93.80
6291;DHT22;3178;48.730;8.990;2023-03-01T09:54:04;9.10;93.00
6291;DHT22;3178;48.730;8.990;2023-03-01T09:56:36;9.40;93.30
6291;DHT22;3178;48.730;8.990;2023-03-01T09:59:30;9.60;92.80
6291;DHT22;3178;48.730;8.990;2023-03-01T10:04:53;9.90;91.90
6291;DHT22;3178;48.730;8.990;2023-03-01T10:07:47;10.00;91.20
6291;DHT22;3178;48.730;8.990;2023-03-01T10:10:35;10.30;91.00
6291;DHT22;3178;48.730;8.990;2023-03-01T10:13:24;10.70;87.80
6291;DHT22;3178;48.730;8.990;2023-03-01T10:16:05;10.60;87.30
6291;DHT22;3178;48.730;8.990;2023-03-01T10:18:33;10.50;87.80
6291;DHT22;3178;48.730;8.990;2023-03-01T10:21:12;10.80;88.60
6291;DHT22;3178;48.730;8.990;2023-03-01T10:23:39;10.50;87.20
6291;DHT22;3178;48.730;8.990;2023-03-01T10:26:43;10.90;84.30
6291;DHT22;3178;48.730;8.990;2023-03-01T10:29:12;11.00;83.10
6291;DHT22;3178;48.730;8.990;2023-03-01T10:31:46;11.00;84.00
6291;DHT22;3178;48.730;8.990;2023-03-01T10:34:33;11.00;84.90
6291;DHT22;3178;48.730;8.990;2023-03-01T10:37:17;11.00;85.60
6291;DHT22;3178;48.730;8.990;2023-03-01T10:40:00;11.10;84.50
6291;DHT22;3178;48.730;8.990;2023-03-01T10:42:35;11.30;85.20
6291;DHT22;3178;48.730;8.990;2023-03-01T10:48:14;11.60;80.60
6291;DHT22;3178;48.730;8.990;2023-03-01T10:50:45;11.60;80.00
6291;DHT22;3178;48.730;8.990;2023-03-01T10:53:21;11.80;79.10
6291;DHT22;3178;48.730;8.990;2023-03-01T10:58:24;11.90;79.20
6291;DHT22;3178;48.730;8.990;2023-03-01T11:00:57;12.40;77.30
6291;DHT22;3178;48.730;8.990;2023-03-01T11:03:33;12.30;79.80
6291;DHT22;3178;48.730;8.990;2023-03-01T11:13:52;13.00;77.90
6291;DHT22;3178;48.730;8.990;2023-03-01T11:16:32;13.30;74.20
6291;DHT22;3178;48.730;8.990;2023-03-01T11:21:52;13.80;72.10
6291;DHT22;3178;48.730;8.990;2023-03-01T11:24:20;13.90;72.50
6291;DHT22;3178;48.730;8.990;2023-03-01T11:26:52;13.70;74.10
6291;DHT22;3178;48.730;8.990;2023-03-01T11:29:38;13.90;71.30
6291;DHT22;3178;48.730;8.990;2023-03-01T11:32:08;13.90;71.40
6291;DHT22;3178;48.730;8.990;2023-03-01T11:34:56;14.00;70.00
6291;DHT22;3178;48.730;8.990;2023-03-01T11:37:38;14.10;69.80
6291;DHT22;3178;48.730;8.990;2023-03-01T11:40:15;14.40;69.00
6291;DHT22;3178;48.730;8.990;2023-03-01T11:45:20;14.50;68.60
6291;DHT22;3178;48.730;8.990;2023-03-01T11:48:11;14.50;67.80
6291;DHT22;3178;48.730;8.990;2023-03-01T11:50:45;14.50;67.40
6291;DHT22;3178;48.730;8.990;2023-03-01T11:56:19;14.90;66.00
6291;DHT22;3178;48.730;8.990;2023-03-01T12:05:12;15.00;63.60
6291;DHT22;3178;48.730;8.990;2023-03-01T12:18:35;14.90;63.10
6291;DHT22;3178;48.730;8.990;2023-03-01T12:21:27;14.80;62.40
6291;DHT22;3178;48.730;8.990;2023-03-01T12:27:00;14.80;65.00
6291;DHT22;3178;48.730;8.990;2023-03-01T12:29:39;14.90;65.70
6291;DHT22;3178;48.730;8.990;2023-03-01T12:37:56;15.40;62.10
6291;DHT22;3178;48.730;8.990;2023-03-01T12:40:53;15.40;61.80
6291;DHT22;3178;48.730;8.990;2023-03-01T12:43:41;15.50;62.20
6291;DHT22;3178;48.730;8.990;2023-03-01T12:46:25;15.80;62.40
6291;DHT22;3178;48.730;8.990;2023-03-01T12:49:06;16.00;60.90
6291;DHT22;3178;48.730;8.990;2023-03-01T12:51:35;16.00;60.00
6291;DHT22;3178;48.730;8.990;2023-03-01T12:54:14;16.20;59.50
6291;DHT22;3178;48.730;8.990;2023-03-01T12:56:41;16.00;59.30
6291;DHT22;3178;48.730;8.990;2023-03-01T12:59:24;15.70;58.80
6291;DHT22;3178;48.730;8.990;2023-03-01T13:02:14;15.80;60.50
6291;DHT22;3178;48.730;8.990;2023-03-01T13:05:23;15.70;61.00
6291;DHT22;3178;48.730;8.990;2023-03-01T13:07:55;15.70;60.90
6291;DHT22;3178;48.730;8.990;2023-03-01T13:10:33;16.00;61.00
6291;DHT22;3178;48.730;8.990;2023-03-01T13:13:19;16.10;61.00
6291;DHT22;3178;48.730;8.990;2023-03-01T13:15:45;16.20;59.70
6291;DHT22;3178;48.730;8.990;2023-03-01T13:31:05;16.00;59.50
6291;DHT22;3178;48.730;8.990;2023-03-01T13:35:58;15.80;60.60
6291;DHT22;3178;48.730;8.990;2023-03-01T13:41:04;15.70;61.10
6291;DHT22;3178;48.730;8.990;2023-03-01T13:43:35;15.70;60.70
6291;DHT22;3178;48.730;8.990;2023-03-01T13:46:23;15.70;63.00
6291;DHT22;3178;48.730;8.990;2023-03-01T13:48:52;15.90;61.10
6291;DHT22;3178;48.730;8.990;2023-03-01T13:51:25;15.90;59.60
6291;DHT22;3178;48.730;8.990;2023-03-01T13:53:53;15.80;58.90
6291;DHT22;3178;48.730;8.990;2023-03-01T13:56:24;15.50;60.60
6291;DHT22;3178;48.730;8.990;2023-03-01T13:59:01;15.30;60.90
6291;DHT22;3178;48.730;8.990;2023-03-01T14:01:36;15.10;61.10
6291;DHT22;3178;48.730;8.990;2023-03-01T14:04:03;15.10;61.40
6291;DHT22;3178;48.730;8.990;2023-03-01T14:06:42;15.10;61.30
6291;DHT22;3178;48.730;8.990;2023-03-01T14:09:24;15.20;61.60
6291;DHT22;3178;48.730;8.990;2023-03-01T14:14:57;15.20;60.60
6291;DHT22;3178;48.730;8.990;2023-03-01T14:20:23;15.10;60.90
6291;DHT22;3178;48.730;8.990;2023-03-01T14:22:59;14.90;61.50
6291;DHT22;3178;48.730;8.990;2023-03-01T14:25:29;14.80;63.30
6291;DHT22;3178;48.730;8.990;2023-03-01T14:30:52;14.80;61.90
6291;DHT22;3178;48.730;8.990;2023-03-01T14:33:25;14.80;61.80
6291;DHT22;3178;48.730;8.990;2023-03-01T14:36:46;14.50;60.50
6291;DHT22;3178;48.730;8.990;2023-03-01T14:38:47;14.00;63.30
6291;DHT22;3178;48.730;8.990;2023-03-01T14:41:22;13.80;61.60
6291;DHT22;3178;48.730;8.990;2023-03-01T14:43:59;13.50;62.30
6291;DHT22;3178;48.730;8.990;2023-03-01T14:46:43;13.10;61.90
6291;DHT22;3178;48.730;8.990;2023-03-01T14:49:16;12.60;63.90
6291;DHT22;3178;48.730;8.990;2023-03-01T14:51:53;12.30;64.40
6291;DHT22;3178;48.730;8.990;2023-03-01T14:54:23;11.90;66.20
6291;DHT22;3178;48.730;8.990;2023-03-01T14:56:51;11.60;67.90
6291;DHT22;3178;48.730;8.990;2023-03-01T14:59:21;11.40;67.40
6291;DHT22;3178;48.730;8.990;2023-03-01T15:01:48;11.30;67.10
6291;DHT22;3178;48.730;8.990;2023-03-01T15:04:14;11.00;67.20
6291;DHT22;3178;48.730;8.990;2023-03-01T15:06:40;10.70;67.60
6291;DHT22;3178;48.730;8.990;2023-03-01T15:09:10;10.50;68.70
6291;DHT22;3178;48.730;8.990;2023-03-01T15:11:37;10.30;69.10
6291;DHT22;3178;48.730;8.990;2023-03-01T15:14:29;10.10;70.50
6291;DHT22;3178;48.730;8.990;2023-03-01T15:17:03;10.00;70.70
6291;DHT22;3178;48.730;8.990;2023-03-01T15:19:29;9.90;72.00
6291;DHT22;3178;48.730;8.990;2023-03-01T15:21:55;9.80;72.80
6291;DHT22;3178;48.730;8.990;2023-03-01T15:24:24;9.80;73.50
6291;DHT22;3178;48.730;8.990;2023-03-01T15:26:51;9.70;73.30
6291;DHT22;3178;48.730;8.990;2023-03-01T15:29:24;9.70;73.50
6291;DHT22;3178;48.730;8.990;2023-03-01T15:32:01;9.50;72.90
6291;DHT22;3178;48.730;8.990;2023-03-01T15:34:34;9.40;73.40
6291;DHT22;3178;48.730;8.990;2023-03-01T15:37:03;9.20;73.90
6291;DHT22;3178;48.730;8.990;2023-03-01T15:39:34;9.10;74.20
6291;DHT22;3178;48.730;8.990;2023-03-01T15:42:03;9.00;75.10
6291;DHT22;3178;48.730;8.990;2023-03-01T15:44:33;8.80;75.40
6291;DHT22;3178;48.730;8.990;2023-03-01T15:46:59;8.70;74.80
6291;DHT22;3178;48.730;8.990;2023-03-01T15:49:34;8.60;75.90
6291;DHT22;3178;48.730;8.990;2023-03-01T15:52:01;8.50;76.10
6291;DHT22;3178;48.730;8.990;2023-03-01T15:54:27;8.40;76.80
6291;DHT22;3178;48.730;8.990;2023-03-01T15:56:53;8.40;77.50
6291;DHT22;3178;48.730;8.990;2023-03-01T15:59:19;8.30;78.70
6291;DHT22;3178;48.730;8.990;2023-03-01T16:01:45;8.30;78.00
6291;DHT22;3178;48.730;8.990;2023-03-01T16:04:12;8.30;77.10
6291;DHT22;3178;48.730;8.990;2023-03-01T16:06:46;8.20;77.70
6291;DHT22;3178;48.730;8.990;2023-03-01T16:09:18;8.10;77.60
6291;DHT22;3178;48.730;8.990;2023-03-01T16:11:44;7.90;78.30
6291;DHT22;3178;48.730;8.990;2023-03-01T16:14:09;7.80;79.40
6291;DHT22;3178;48.730;8.990;2023-03-01T16:16:35;7.80;79.70
6291;DHT22;3178;48.730;8.990;2023-03-01T16:19:00;7.70;78.50
6291;DHT22;3178;48.730;8.990;2023-03-01T16:21:26;7.60;79.50
6291;DHT22;3178;48.730;8.990;2023-03-01T16:23:52;7.50;79.10
6291;DHT22;3178;48.730;8.990;2023-03-01T16:26:18;7.50;79.40
6291;DHT22;3178;48.730;8.990;2023-03-01T16:28:44;7.40;79.30
6291;DHT22;3178;48.730;8.990;2023-03-01T16:31:10;7.30;79.90
6291;DHT22;3178;48.730;8.990;2023-03-01T16:33:37;7.30;80.10
6291;DHT22;3178;48.730;8.990;2023-03-01T16:36:08;7.10;80.00
6291;DHT22;3178;48.730;8.990;2023-03-01T16:38:34;7.00;80.30
6291;DHT22;3178;48.730;8.990;2023-03-01T16:41:00;7.00;80.90
6291;DHT22;3178;48.730;8.990;2023-03-01T16:43:26;6.90;81.40
6291;DHT22;3178;48.730;8.990;2023-03-01T16:45:52;6.90;81.80
6291;DHT22;3178;48.730;8.990;2023-03-01T16:48:18;6.90;81.30
6291;DHT22;3178;48.730;8.990;2023-03-01T16:50:43;6.90;81.90
6291;DHT22;3178;48.730;8.990;2023-03-01T16:53:09;6.80;82.20
6291;DHT22;3178;48.730;8.990;2023-03-01T16:55:35;6.70;82.10
6291;DHT22;3178;48.730;8.990;2023-03-01T16:58:00;6.70;82.10
6291;DHT22;3178;48.730;8.990;2023-03-01T17:00:26;6.60;82.50
6291;DHT22;3178;48.730;8.990;2023-03-01T17:02:51;6.50;82.30
6291;DHT22;3178;48.730;8.990;2023-03-01T17:05:18;6.50;82.60
6291;DHT22;3178;48.730;8.990;2023-03-01T17:07:46;6.40;83.30
6291;DHT22;3178;48.730;8.990;2023-03-01T17:10:11;6.30;83.00
6291;DHT22;3178;48.730;8.990;2023-03-01T17:12:38;6.30;84.70
6291;DHT22;3178;48.730;8.990;2023-03-01T17:15:05;6.20;83.70
6291;DHT22;3178;48.730;8.990;2023-03-01T17:17:31;6.20;83.90
6291;DHT22;3178;48.730;8.990;2023-03-01T17:19:57;6.10;84.20
6291;DHT22;3178;48.730;8.990;2023-03-01T17:22:22;6.10;84.50
6291;DHT22;3178;48.730;8.990;2023-03-01T17:24:48;6.00;84.90
6291;DHT22;3178;48.730;8.990;2023-03-01T17:27:14;6.00;85.60
6291;DHT22;3178;48.730;8.990;2023-03-01T17:29:40;6.00;85.80
6291;DHT22;3178;48.730;8.990;2023-03-01T17:32:06;5.90;85.80
6291;DHT22;3178;48.730;8.990;2023-03-01T17:34:33;5.80;85.80
6291;DHT22;3178;48.730;8.990;2023-03-01T17:36:59;5.80;86.10
6291;DHT22;3178;48.730;8.990;2023-03-01T17:39:25;5.70;86.50
6291;DHT22;3178;48.730;8.990;2023-03-01T17:41:53;5.80;86.40
6291;DHT22;3178;48.730;8.990;2023-03-01T17:44:19;5.60;86.60
6291;DHT22;3178;48.730;8.990;2023-03-01T17:46:45;5.60;86.80
6291;DHT22;3178;48.730;8.990;2023-03-01T17:51:48;5.60;86.80
6291;DHT22;3178;48.730;8.990;2023-03-01T17:54:14;5.50;87.70